sensor_id;sensor_type;location;lat;lon;timestamp;temperature;humidity
8965;DHT22;4517;49.020;12.066;2023-07-13T00:02:22;19.30;99.90
8965;DHT22;4517;49.020;12.066;2023-07-13T00:04:48;19.30;99.90
8965;DHT22;4517;49.020;12.066;2023-07-13T00:07:14;19.20;99.90
8965;DHT22;4517;49.020;12.066;2023-07-13T00:09:40;19.20;99.90
8965;DHT22;4517;49.020;12.066;2023-07-13T00:12:28;19.20;99.90
8965;DHT22;4517;49.020;12.066;2023-07-13T00:14:56;19.20;99.90
8965;DHT22;4517;49.020;12.066;2023-07-13T00:17:23;19.10;99.90
8965;DHT22;4517;49.020;12.066;2023-07-13T00:19:48;19.10;99.90
8965;DHT22;4517;49.020;12.066;2023-07-13T00:22:14;19.10;99.90
8965;DHT22;4517;49.020;12.066;2023-07-13T00:24:40;19.10;99.90
8965;DHT22;4517;49.020;12.066;2023-07-13T00:27:08;19.10;99.90
8965;DHT22;4517;49.020;12.066;2023-07-13T00:29:35;19.10;99.90
8965;DHT22;4517;49.020;12.066;2023-07-13T00:32:01;19.10;99.90
8965;DHT22;4517;49.020;12.066;2023-07-13T00:34:26;19.00;99.90
8965;DHT22;4517;49.020;12.066;2023-07-13T00:36:52;19.00;99.90
8965;DHT22;4517;49.020;12.066;2023-07-13T00:39:17;18.90;99.90
8965;DHT22;4517;49.020;12.066;2023-07-13T00:41:43;18.90;99.90
8965;DHT22;4517;49.020;12.066;2023-07-13T00:44:14;18.80;99.90
8965;DHT22;4517;49.020;12.066;2023-07-13T00:46:39;18.70;99.90
8965;DHT22;4517;49.020;12.066;2023-07-13T00:49:07;18.70;99.90
8965;DHT22;4517;49.020;12.066;2023-07-13T00:51:55;18.70;99.90
8965;DHT22;4517;49.020;12.066;2023-07-13T00:54:36;18.70;99.90
8965;DHT22;4517;49.020;12.066;2023-07-13T00:57:06;18.70;99.90
8965;DHT22;4517;49.020;12.066;2023-07-13T00:59:35;18.70;99.90
8965;DHT22;4517;49.020;12.066;2023-07-13T01:02:02;18.80;99.90
8965;DHT22;4517;49.020;12.066;2023-07-13T01:04:28;18.80;99.90
8965;DHT22;4517;49.020;12.066;2023-07-13T01:06:54;18.90;99.90
8965;DHT22;4517;49.020;12.066;2023-07-13T01:09:20;18.90;99.90
8965;DHT22;4517;49.020;12.066;2023-07-13T01:11:46;18.80;99.90
8965;DHT22;4517;49.020;12.066;2023-07-13T01:14:13;18.90;99.90
8965;DHT22;4517;49.020;12.066;2023-07-13T01:16:40;18.90;99.90
8965;DHT22;4517;49.020;12.066;2023-07-13T01:19:37;18.90;99.90
8965;DHT22;4517;49.020;12.066;2023-07-13T01:22:12;18.90;99.90
8965;DHT22;4517;49.020;12.066;2023-07-13T01:24:41;18.90;99.90
8965;DHT22;4517;49.020;12.066;2023-07-13T01:27:09;19.00;99.90
8965;DHT22;4517;49.020;12.066;2023-07-13T01:29:37;19.00;99.90
8965;DHT22;4517;49.020;12.066;2023-07-13T01:32:16;19.00;99.90
8965;DHT22;4517;49.020;12.066;2023-07-13T01:34:41;18.90;99.90
8965;DHT22;4517;49.020;12.066;2023-07-13T01:37:11;19.00;99.90
8965;DHT22;4517;49.020;12.066;2023-07-13T01:39:37;19.00;99.90
8965;DHT22;4517;49.020;12.066;2023-07-13T01:42:03;19.00;99.90
8965;DHT22;4517;49.020;12.066;2023-07-13T01:44:29;19.00;99.90
8965;DHT22;4517;49.020;12.066;2023-07-13T01:46:54;19.00;99.90
8965;DHT22;4517;49.020;12.066;2023-07-13T01:49:20;19.00;99.90
8965;DHT22;4517;49.020;12.066;2023-07-13T01:51:46;18.90;99.90
8965;DHT22;4517;49.020;12.066;2023-07-13T01:54:11;19.00;99.90
8965;DHT22;4517;49.020;12.066;2023-07-13T01:56:37;19.00;99.90
8965;DHT22;4517;49.020;12.066;2023-07-13T01:59:02;18.90;99.90
8965;DHT22;4517;49.020;12.066;2023-07-13T02:01:28;18.90;99.90
8965;DHT22;4517;49.020;12.066;2023-07-13T02:03:54;18.90;99.90
8965;DHT22;4517;49.020;12.066;2023-07-13T02:06:19;18.80;99.90
8965;DHT22;4517;49.020;12.066;2023-07-13T02:08:45;18.80;99.90
8965;DHT22;4517;49.020;12.066;2023-07-13T02:11:11;18.70;99.90
8965;DHT22;4517;49.020;12.066;2023-07-13T02:13:37;18.60;99.90
8965;DHT22;4517;49.020;12.066;2023-07-13T02:16:02;18.60;99.90
8965;DHT22;4517;49.020;12.066;2023-07-13T02:18:28;18.50;99.90
8965;DHT22;4517;49.020;12.066;2023-07-13T02:20:54;18.50;99.90
8965;DHT22;4517;49.020;12.066;2023-07-13T02:23:19;18.50;99.90
8965;DHT22;4517;49.020;12.066;2023-07-13T02:25:45;18.40;99.90
8965;DHT22;4517;49.020;12.066;2023-07-13T02:28:11;18.40;99.90
8965;DHT22;4517;49.020;12.066;2023-07-13T02:30:37;18.30;99.90
8965;DHT22;4517;49.020;12.066;2023-07-13T02:33:04;18.30;99.90
8965;DHT22;4517;49.020;12.066;2023-07-13T02:35:29;18.20;99.90
8965;DHT22;4517;49.020;12.066;2023-07-13T02:37:55;18.20;99.90
8965;DHT22;4517;49.020;12.066;2023-07-13T02:40:20;18.10;99.90
8965;DHT22;4517;49.020;12.066;2023-07-13T02:42:46;18.00;99.90
8965;DHT22;4517;49.020;12.066;2023-07-13T02:45:12;18.10;99.90
8965;DHT22;4517;49.020;12.066;2023-07-13T02:47:40;18.10;99.90
8965;DHT22;4517;49.020;12.066;2023-07-13T02:50:06;18.10;99.90
8965;DHT22;4517;49.020;12.066;2023-07-13T02:52:32;18.00;99.90
8965;DHT22;4517;49.020;12.066;2023-07-13T02:54:58;18.00;99.90
8965;DHT22;4517;49.020;12.066;2023-07-13T02:57:23;17.90;99.90
8965;DHT22;4517;49.020;12.066;2023-07-13T02:59:49;17.90;99.90
8965;DHT22;4517;49.020;12.066;2023-07-13T03:02:15;17.90;99.90
8965;DHT22;4517;49.020;12.066;2023-07-13T03:04:41;17.80;99.90
8965;DHT22;4517;49.020;12.066;2023-07-13T03:07:07;17.80;99.90
8965;DHT22;4517;49.020;12.066;2023-07-13T03:09:34;17.70;99.90
8965;DHT22;4517;49.020;12.066;2023-07-13T03:12:00;17.70;99.90
8965;DHT22;4517;49.020;12.066;2023-07-13T03:14:26;17.60;99.90
8965;DHT22;4517;49.020;12.066;2023-07-13T03:16:52;17.70;99.90
8965;DHT22;4517;49.020;12.066;2023-07-13T03:19:18;17.60;99.90
8965;DHT22;4517;49.020;12.066;2023-07-13T03:21:44;17.60;99.90
8965;DHT22;4517;49.020;12.066;2023-07-13T03:24:09;17.60;99.90
8965;DHT22;4517;49.020;12.066;2023-07-13T03:26:35;17.60;99.90
8965;DHT22;4517;49.020;12.066;2023-07-13T03:29:00;17.60;99.90
8965;DHT22;4517;49.020;12.066;2023-07-13T03:31:29;17.70;99.90
8965;DHT22;4517;49.020;12.066;2023-07-13T03:33:56;17.80;99.90
8965;DHT22;4517;49.020;12.066;2023-07-13T03:36:26;17.70;99.90
8965;DHT22;4517;49.020;12.066;2023-07-13T03:38:54;17.60;99.90
8965;DHT22;4517;49.020;12.066;2023-07-13T03:41:21;17.60;99.90
8965;DHT22;4517;49.020;12.066;2023-07-13T03:43:46;17.60;99.90
8965;DHT22;4517;49.020;12.066;2023-07-13T03:46:13;17.60;99.90
8965;DHT22;4517;49.020;12.066;2023-07-13T03:48:43;17.60;99.90
8965;DHT22;4517;49.020;12.066;2023-07-13T03:51:10;17.60;99.90
8965;DHT22;4517;49.020;12.066;2023-07-13T03:53:38;17.50;99.90
8965;DHT22;4517;49.020;12.066;2023-07-13T03:56:05;17.50;99.90
8965;DHT22;4517;49.020;12.066;2023-07-13T04:00:56;17.40;99.90
8965;DHT22;4517;49.020;12.066;2023-07-13T04:03:23;17.40;99.90
8965;DHT22;4517;49.020;12.066;2023-07-13T04:05:48;17.50;99.90
8965;DHT22;4517;49.020;12.066;2023-07-13T04:08:14;17.50;99.90
8965;DHT22;4517;49.020;12.066;2023-07-13T04:10:39;17.60;99.90
8965;DHT22;4517;49.020;12.066;2023-07-13T04:13:06;17.70;99.90
8965;DHT22;4517;49.020;12.066;2023-07-13T04:15:32;17.80;99.90
8965;DHT22;4517;49.020;12.066;2023-07-13T04:17:58;17.90;99.90
8965;DHT22;4517;49.020;12.066;2023-07-13T04:20:25;18.00;99.90
8965;DHT22;4517;49.020;12.066;2023-07-13T04:22:51;18.10;99.90
8965;DHT22;4517;49.020;12.066;2023-07-13T04:25:17;18.20;99.90
8965;DHT22;4517;49.020;12.066;2023-07-13T04:27:42;18.40;99.90
8965;DHT22;4517;49.020;12.066;2023-07-13T04:30:08;18.60;99.90
8965;DHT22;4517;49.020;12.066;2023-07-13T04:32:34;18.80;99.90
8965;DHT22;4517;49.020;12.066;2023-07-13T04:34:59;19.10;99.90
8965;DHT22;4517;49.020;12.066;2023-07-13T04:37:26;19.40;99.90
8965;DHT22;4517;49.020;12.066;2023-07-13T04:39:52;19.70;99.90
8965;DHT22;4517;49.020;12.066;2023-07-13T04:42:18;20.00;99.90
8965;DHT22;4517;49.020;12.066;2023-07-13T04:44:51;20.20;99.90
8965;DHT22;4517;49.020;12.066;2023-07-13T04:47:17;20.10;99.90
8965;DHT22;4517;49.020;12.066;2023-07-13T04:49:43;20.10;99.90
8965;DHT22;4517;49.020;12.066;2023-07-13T04:52:08;20.00;99.90
8965;DHT22;4517;49.020;12.066;2023-07-13T04:54:34;19.90;99.90
8965;DHT22;4517;49.020;12.066;2023-07-13T04:57:00;19.90;99.90
8965;DHT22;4517;49.020;12.066;2023-07-13T04:59:26;20.00;99.90
8965;DHT22;4517;49.020;12.066;2023-07-13T05:01:52;20.00;99.90
8965;DHT22;4517;49.020;12.066;2023-07-13T05:04:18;20.00;99.90
8965;DHT22;4517;49.020;12.066;2023-07-13T05:06:43;20.00;99.90
8965;DHT22;4517;49.020;12.066;2023-07-13T05:09:09;20.00;99.90
8965;DHT22;4517;49.020;12.066;2023-07-13T05:11:35;20.00;99.90
8965;DHT22;4517;49.020;12.066;2023-07-13T05:14:00;20.00;99.90
8965;DHT22;4517;49.020;12.066;2023-07-13T05:16:27;20.00;99.90
8965;DHT22;4517;49.020;12.066;2023-07-13T05:18:53;20.00;99.90
8965;DHT22;4517;49.020;12.066;2023-07-13T05:21:19;20.00;99.90
8965;DHT22;4517;49.020;12.066;2023-07-13T05:23:44;20.10;99.90
8965;DHT22;4517;49.020;12.066;2023-07-13T05:26:10;20.20;99.90
8965;DHT22;4517;49.020;12.066;2023-07-13T05:28:37;20.90;99.90
8965;DHT22;4517;49.020;12.066;2023-07-13T05:31:02;21.70;99.90
8965;DHT22;4517;49.020;12.066;2023-07-13T05:33:28;22.30;99.90
8965;DHT22;4517;49.020;12.066;2023-07-13T05:35:54;23.00;99.90
8965;DHT22;4517;49.020;12.066;2023-07-13T05:38:20;23.50;99.90
8965;DHT22;4517;49.020;12.066;2023-07-13T05:40:46;24.00;99.90
8965;DHT22;4517;49.020;12.066;2023-07-13T05:43:12;24.40;99.80
8965;DHT22;4517;49.020;12.066;2023-07-13T05:45:38;24.30;97.20
8965;DHT22;4517;49.020;12.066;2023-07-13T05:48:03;24.00;96.00
8965;DHT22;4517;49.020;12.066;2023-07-13T05:50:29;23.60;94.80
8965;DHT22;4517;49.020;12.066;2023-07-13T05:52:54;23.00;94.10
8965;DHT22;4517;49.020;12.066;2023-07-13T05:55:21;22.70;95.50
8965;DHT22;4517;49.020;12.066;2023-07-13T05:57:47;23.10;93.90
8965;DHT22;4517;49.020;12.066;2023-07-13T06:00:13;22.80;93.70
8965;DHT22;4517;49.020;12.066;2023-07-13T06:02:38;22.60;94.10
8965;DHT22;4517;49.020;12.066;2023-07-13T06:05:04;22.60;93.70
8965;DHT22;4517;49.020;12.066;2023-07-13T06:07:30;22.40;93.80
8965;DHT22;4517;49.020;12.066;2023-07-13T06:09:56;22.30;93.60
8965;DHT22;4517;49.020;12.066;2023-07-13T06:12:21;22.20;92.40
8965;DHT22;4517;49.020;12.066;2023-07-13T06:14:47;22.20;92.90
8965;DHT22;4517;49.020;12.066;2023-07-13T06:17:12;22.30;93.00
8965;DHT22;4517;49.020;12.066;2023-07-13T06:19:38;23.20;92.40
8965;DHT22;4517;49.020;12.066;2023-07-13T06:22:04;24.00;91.90
8965;DHT22;4517;49.020;12.066;2023-07-13T06:24:29;24.60;90.70
8965;DHT22;4517;49.020;12.066;2023-07-13T06:26:55;25.20;88.60
8965;DHT22;4517;49.020;12.066;2023-07-13T06:29:20;25.30;86.80
8965;DHT22;4517;49.020;12.066;2023-07-13T06:31:46;25.00;86.00
8965;DHT22;4517;49.020;12.066;2023-07-13T06:34:11;24.50;86.60
8965;DHT22;4517;49.020;12.066;2023-07-13T06:36:37;24.50;86.00
8965;DHT22;4517;49.020;12.066;2023-07-13T06:39:04;24.10;83.60
8965;DHT22;4517;49.020;12.066;2023-07-13T06:41:29;23.90;84.70
8965;DHT22;4517;49.020;12.066;2023-07-13T06:43:56;23.70;84.80
8965;DHT22;4517;49.020;12.066;2023-07-13T06:46:22;23.40;85.80
8965;DHT22;4517;49.020;12.066;2023-07-13T06:48:48;23.70;86.30
8965;DHT22;4517;49.020;12.066;2023-07-13T06:51:13;23.90;86.50
8965;DHT22;4517;49.020;12.066;2023-07-13T06:53:39;24.30;85.60
8965;DHT22;4517;49.020;12.066;2023-07-13T06:56:05;24.60;84.90
8965;DHT22;4517;49.020;12.066;2023-07-13T06:58:31;25.30;80.80
8965;DHT22;4517;49.020;12.066;2023-07-13T07:00:56;25.60;79.70
8965;DHT22;4517;49.020;12.066;2023-07-13T07:03:22;25.60;79.70
8965;DHT22;4517;49.020;12.066;2023-07-13T07:05:47;25.20;78.40
8965;DHT22;4517;49.020;12.066;2023-07-13T07:08:13;24.90;78.90
8965;DHT22;4517;49.020;12.066;2023-07-13T07:10:40;24.40;79.70
8965;DHT22;4517;49.020;12.066;2023-07-13T07:13:05;24.40;79.70
8965;DHT22;4517;49.020;12.066;2023-07-13T07:15:31;24.10;80.80
8965;DHT22;4517;49.020;12.066;2023-07-13T07:17:56;24.00;80.50
8965;DHT22;4517;49.020;12.066;2023-07-13T07:20:22;23.90;80.20
8965;DHT22;4517;49.020;12.066;2023-07-13T07:22:48;24.10;80.10
8965;DHT22;4517;49.020;12.066;2023-07-13T07:25:13;23.70;79.90
8965;DHT22;4517;49.020;12.066;2023-07-13T07:27:39;23.60;79.90
8965;DHT22;4517;49.020;12.066;2023-07-13T07:30:05;23.90;78.60
8965;DHT22;4517;49.020;12.066;2023-07-13T07:32:32;24.10;78.10
8965;DHT22;4517;49.020;12.066;2023-07-13T07:34:58;23.90;80.20
8965;DHT22;4517;49.020;12.066;2023-07-13T07:37:23;24.20;79.00
8965;DHT22;4517;49.020;12.066;2023-07-13T07:39:49;24.40;79.50
8965;DHT22;4517;49.020;12.066;2023-07-13T07:42:15;24.70;76.70
8965;DHT22;4517;49.020;12.066;2023-07-13T07:44:41;24.50;77.10
8965;DHT22;4517;49.020;12.066;2023-07-13T07:47:08;24.60;76.50
8965;DHT22;4517;49.020;12.066;2023-07-13T07:49:34;24.60;75.30
8965;DHT22;4517;49.020;12.066;2023-07-13T07:52:00;24.40;76.00
8965;DHT22;4517;49.020;12.066;2023-07-13T07:54:25;24.20;76.00
8965;DHT22;4517;49.020;12.066;2023-07-13T07:56:51;24.10;75.80
8965;DHT22;4517;49.020;12.066;2023-07-13T07:59:16;23.90;76.10
8965;DHT22;4517;49.020;12.066;2023-07-13T08:01:42;23.70;74.50
8965;DHT22;4517;49.020;12.066;2023-07-13T08:04:08;23.30;75.70
8965;DHT22;4517;49.020;12.066;2023-07-13T08:06:34;23.20;75.90
8965;DHT22;4517;49.020;12.066;2023-07-13T08:09:00;23.20;75.20
8965;DHT22;4517;49.020;12.066;2023-07-13T08:11:27;23.10;74.40
8965;DHT22;4517;49.020;12.066;2023-07-13T08:13:53;23.00;74.70
8965;DHT22;4517;49.020;12.066;2023-07-13T08:16:19;23.00;76.30
8965;DHT22;4517;49.020;12.066;2023-07-13T08:18:44;23.00;75.90
8965;DHT22;4517;49.020;12.066;2023-07-13T08:21:10;23.00;73.60
8965;DHT22;4517;49.020;12.066;2023-07-13T08:23:36;22.90;74.80
8965;DHT22;4517;49.020;12.066;2023-07-13T08:26:02;22.80;73.90
8965;DHT22;4517;49.020;12.066;2023-07-13T08:28:28;22.70;74.00
8965;DHT22;4517;49.020;12.066;2023-07-13T08:30:54;22.60;73.60
8965;DHT22;4517;49.020;12.066;2023-07-13T08:33:21;22.60;72.40
8965;DHT22;4517;49.020;12.066;2023-07-13T08:35:49;22.50;73.00
8965;DHT22;4517;49.020;12.066;2023-07-13T08:38:16;22.60;72.50
8965;DHT22;4517;49.020;12.066;2023-07-13T08:40:43;22.80;72.40
8965;DHT22;4517;49.020;12.066;2023-07-13T08:43:13;22.80;71.00
8965;DHT22;4517;49.020;12.066;2023-07-13T08:45:51;22.70;72.50
8965;DHT22;4517;49.020;12.066;2023-07-13T08:48:31;22.80;71.40
8965;DHT22;4517;49.020;12.066;2023-07-13T08:51:21;22.90;71.50
8965;DHT22;4517;49.020;12.066;2023-07-13T08:53:52;23.00;71.30
8965;DHT22;4517;49.020;12.066;2023-07-13T08:56:25;23.00;68.80
8965;DHT22;4517;49.020;12.066;2023-07-13T08:59:01;22.90;68.20
8965;DHT22;4517;49.020;12.066;2023-07-13T09:01:55;23.20;70.50
8965;DHT22;4517;49.020;12.066;2023-07-13T09:05:17;23.60;67.70
8965;DHT22;4517;49.020;12.066;2023-07-13T09:08:05;23.70;66.30
8965;DHT22;4517;49.020;12.066;2023-07-13T09:10:49;23.80;65.10
8965;DHT22;4517;49.020;12.066;2023-07-13T09:14:06;23.70;65.50
8965;DHT22;4517;49.020;12.066;2023-07-13T09:16:21;23.60;65.50
8965;DHT22;4517;49.020;12.066;2023-07-13T09:18:50;23.80;66.10
8965;DHT22;4517;49.020;12.066;2023-07-13T09:21:38;23.80;66.60
8965;DHT22;4517;49.020;12.066;2023-07-13T09:26:52;23.90;65.90
8965;DHT22;4517;49.020;12.066;2023-07-13T09:29:27;23.80;65.20
8965;DHT22;4517;49.020;12.066;2023-07-13T09:31:56;23.50;64.90
8965;DHT22;4517;49.020;12.066;2023-07-13T09:34:24;23.20;66.90
8965;DHT22;4517;49.020;12.066;2023-07-13T09:36:49;23.20;68.60
8965;DHT22;4517;49.020;12.066;2023-07-13T09:41:57;23.50;63.40
8965;DHT22;4517;49.020;12.066;2023-07-13T09:44:36;23.40;62.80
8965;DHT22;4517;49.020;12.066;2023-07-13T09:47:02;23.40;59.90
8965;DHT22;4517;49.020;12.066;2023-07-13T09:49:37;23.20;59.30
8965;DHT22;4517;49.020;12.066;2023-07-13T09:52:05;23.00;58.70
8965;DHT22;4517;49.020;12.066;2023-07-13T09:54:36;22.90;59.10
8965;DHT22;4517;49.020;12.066;2023-07-13T09:57:03;22.90;58.90
8965;DHT22;4517;49.020;12.066;2023-07-13T09:59:32;22.80;59.00
8965;DHT22;4517;49.020;12.066;2023-07-13T10:01:58;23.00;59.30
8965;DHT22;4517;49.020;12.066;2023-07-13T10:04:31;23.00;59.50
8965;DHT22;4517;49.020;12.066;2023-07-13T10:07:08;23.20;59.20
8965;DHT22;4517;49.020;12.066;2023-07-13T10:09:34;23.50;59.90
8965;DHT22;4517;49.020;12.066;2023-07-13T10:12:00;24.00;60.50
8965;DHT22;4517;49.020;12.066;2023-07-13T10:14:29;24.30;60.00
8965;DHT22;4517;49.020;12.066;2023-07-13T10:17:00;24.30;58.20
8965;DHT22;4517;49.020;12.066;2023-07-13T10:19:34;24.30;58.00
8965;DHT22;4517;49.020;12.066;2023-07-13T10:24:30;24.60;57.90
8965;DHT22;4517;49.020;12.066;2023-07-13T10:29:27;24.80;57.20
8965;DHT22;4517;49.020;12.066;2023-07-13T10:31:54;24.60;57.30
8965;DHT22;4517;49.020;12.066;2023-07-13T10:34:20;24.90;57.20
8965;DHT22;4517;49.020;12.066;2023-07-13T10:36:47;24.70;56.70
8965;DHT22;4517;49.020;12.066;2023-07-13T10:39:27;24.70;57.50
8965;DHT22;4517;49.020;12.066;2023-07-13T10:41:57;25.00;57.00
8965;DHT22;4517;49.020;12.066;2023-07-13T10:44:28;24.90;57.00
8965;DHT22;4517;49.020;12.066;2023-07-13T10:46:57;25.10;57.10
8965;DHT22;4517;49.020;12.066;2023-07-13T10:49:24;25.40;56.70
8965;DHT22;4517;49.020;12.066;2023-07-13T10:51:52;25.40;55.50
8965;DHT22;4517;49.020;12.066;2023-07-13T10:54:40;25.10;55.70
8965;DHT22;4517;49.020;12.066;2023-07-13T10:57:15;24.80;55.10
8965;DHT22;4517;49.020;12.066;2023-07-13T10:59:42;24.70;54.40
8965;DHT22;4517;49.020;12.066;2023-07-13T11:02:26;24.30;54.30
8965;DHT22;4517;49.020;12.066;2023-07-13T11:04:53;24.20;54.40
8965;DHT22;4517;49.020;12.066;2023-07-13T11:07:28;23.80;53.40
8965;DHT22;4517;49.020;12.066;2023-07-13T11:09:58;23.60;53.60
8965;DHT22;4517;49.020;12.066;2023-07-13T11:17:47;23.70;54.20
8965;DHT22;4517;49.020;12.066;2023-07-13T11:22:49;23.90;54.40
8965;DHT22;4517;49.020;12.066;2023-07-13T11:25:31;23.90;54.80
8965;DHT22;4517;49.020;12.066;2023-07-13T11:28:06;24.00;54.30
8965;DHT22;4517;49.020;12.066;2023-07-13T11:30:37;24.00;54.50
8965;DHT22;4517;49.020;12.066;2023-07-13T11:33:27;23.90;54.10
8965;DHT22;4517;49.020;12.066;2023-07-13T11:36:05;23.80;53.60
8965;DHT22;4517;49.020;12.066;2023-07-13T11:38:41;23.80;53.50
8965;DHT22;4517;49.020;12.066;2023-07-13T11:41:22;23.70;53.90
8965;DHT22;4517;49.020;12.066;2023-07-13T11:43:50;23.90;54.20
8965;DHT22;4517;49.020;12.066;2023-07-13T11:46:22;23.90;53.40
8965;DHT22;4517;49.020;12.066;2023-07-13T11:48:49;23.80;53.30
8965;DHT22;4517;49.020;12.066;2023-07-13T11:51:31;23.90;53.90
8965;DHT22;4517;49.020;12.066;2023-07-13T11:54:03;24.10;53.00
8965;DHT22;4517;49.020;12.066;2023-07-13T11:56:30;24.00;53.30
8965;DHT22;4517;49.020;12.066;2023-07-13T11:58:59;24.20;53.20
8965;DHT22;4517;49.020;12.066;2023-07-13T12:01:31;24.20;52.80
8965;DHT22;4517;49.020;12.066;2023-07-13T12:04:02;24.30;53.10
8965;DHT22;4517;49.020;12.066;2023-07-13T12:06:31;24.30;53.20
8965;DHT22;4517;49.020;12.066;2023-07-13T12:08:59;24.40;53.00
8965;DHT22;4517;49.020;12.066;2023-07-13T12:11:26;24.40;52.80
8965;DHT22;4517;49.020;12.066;2023-07-13T12:13:52;24.60;53.70
8965;DHT22;4517;49.020;12.066;2023-07-13T12:16:30;24.80;53.40
8965;DHT22;4517;49.020;12.066;2023-07-13T12:18:59;24.90;53.20
8965;DHT22;4517;49.020;12.066;2023-07-13T12:21:37;25.00;53.00
8965;DHT22;4517;49.020;12.066;2023-07-13T12:24:04;24.90;52.30
8965;DHT22;4517;49.020;12.066;2023-07-13T12:26:31;24.70;52.20
8965;DHT22;4517;49.020;12.066;2023-07-13T12:29:00;24.80;52.80
8965;DHT22;4517;49.020;12.066;2023-07-13T12:34:05;24.70;51.40
8965;DHT22;4517;49.020;12.066;2023-07-13T12:36:34;24.60;51.60
8965;DHT22;4517;49.020;12.066;2023-07-13T12:39:04;24.60;52.10
8965;DHT22;4517;49.020;12.066;2023-07-13T12:41:32;24.90;52.20
8965;DHT22;4517;49.020;12.066;2023-07-13T12:43:59;24.90;52.30
8965;DHT22;4517;49.020;12.066;2023-07-13T12:46:26;25.00;50.60
8965;DHT22;4517;49.020;12.066;2023-07-13T12:48:56;24.60;51.20
8965;DHT22;4517;49.020;12.066;2023-07-13T12:51:25;24.60;51.40
8965;DHT22;4517;49.020;12.066;2023-07-13T12:54:06;24.50;51.20
8965;DHT22;4517;49.020;12.066;2023-07-13T12:56:33;24.60;51.00
8965;DHT22;4517;49.020;12.066;2023-07-13T12:59:03;24.70;50.30
8965;DHT22;4517;49.020;12.066;2023-07-13T13:01:31;24.60;50.70
8965;DHT22;4517;49.020;12.066;2023-07-13T13:04:01;24.70;50.00
8965;DHT22;4517;49.020;12.066;2023-07-13T13:06:29;24.70;50.70
8965;DHT22;4517;49.020;12.066;2023-07-13T13:08:57;24.80;51.20
8965;DHT22;4517;49.020;12.066;2023-07-13T13:11:24;24.80;50.80
8965;DHT22;4517;49.020;12.066;2023-07-13T13:13:52;24.80;50.20
8965;DHT22;4517;49.020;12.066;2023-07-13T13:18:56;24.80;48.90
8965;DHT22;4517;49.020;12.066;2023-07-13T13:21:25;24.90;49.00
8965;DHT22;4517;49.020;12.066;2023-07-13T13:23:51;25.00;49.30
8965;DHT22;4517;49.020;12.066;2023-07-13T13:26:19;25.10;49.70
8965;DHT22;4517;49.020;12.066;2023-07-13T13:28:45;25.10;49.20
8965;DHT22;4517;49.020;12.066;2023-07-13T13:31:13;25.10;49.00
8965;DHT22;4517;49.020;12.066;2023-07-13T13:33:44;25.00;48.60
8965;DHT22;4517;49.020;12.066;2023-07-13T13:36:22;25.10;48.90
8965;DHT22;4517;49.020;12.066;2023-07-13T13:38:50;25.10;49.00
8965;DHT22;4517;49.020;12.066;2023-07-13T13:41:16;25.10;49.20
8965;DHT22;4517;49.020;12.066;2023-07-13T13:43:43;25.10;49.10
8965;DHT22;4517;49.020;12.066;2023-07-13T13:46:17;25.30;49.00
8965;DHT22;4517;49.020;12.066;2023-07-13T13:48:44;25.50;48.20
8965;DHT22;4517;49.020;12.066;2023-07-13T13:51:19;25.60;48.70
8965;DHT22;4517;49.020;12.066;2023-07-13T13:53:46;25.40;48.70
8965;DHT22;4517;49.020;12.066;2023-07-13T13:56:12;25.50;48.90
8965;DHT22;4517;49.020;12.066;2023-07-13T13:58:38;25.60;48.90
8965;DHT22;4517;49.020;12.066;2023-07-13T14:01:04;25.70;48.70
8965;DHT22;4517;49.020;12.066;2023-07-13T14:03:33;25.70;48.00
8965;DHT22;4517;49.020;12.066;2023-07-13T14:05:59;25.90;48.70
8965;DHT22;4517;49.020;12.066;2023-07-13T14:08:24;26.20;48.30
8965;DHT22;4517;49.020;12.066;2023-07-13T14:10:52;26.30;47.50
8965;DHT22;4517;49.020;12.066;2023-07-13T14:13:35;26.20;47.60
8965;DHT22;4517;49.020;12.066;2023-07-13T14:16:01;26.40;48.00
8965;DHT22;4517;49.020;12.066;2023-07-13T14:18:27;26.60;47.70
8965;DHT22;4517;49.020;12.066;2023-07-13T14:20:53;26.60;46.90
8965;DHT22;4517;49.020;12.066;2023-07-13T14:23:19;26.50;47.40
8965;DHT22;4517;49.020;12.066;2023-07-13T14:25:47;26.50;47.30
8965;DHT22;4517;49.020;12.066;2023-07-13T14:30:44;26.50;47.20
8965;DHT22;4517;49.020;12.066;2023-07-13T14:33:11;26.60;46.60
8965;DHT22;4517;49.020;12.066;2023-07-13T14:35:37;26.50;46.40
8965;DHT22;4517;49.020;12.066;2023-07-13T14:38:03;26.70;46.60
8965;DHT22;4517;49.020;12.066;2023-07-13T14:40:30;26.40;47.10
8965;DHT22;4517;49.020;12.066;2023-07-13T14:42:57;26.60;47.60
8965;DHT22;4517;49.020;12.066;2023-07-13T14:45:24;26.80;47.10
8965;DHT22;4517;49.020;12.066;2023-07-13T14:47:49;26.80;46.60
8965;DHT22;4517;49.020;12.066;2023-07-13T14:50:21;26.70;46.40
8965;DHT22;4517;49.020;12.066;2023-07-13T14:52:47;26.30;45.60
8965;DHT22;4517;49.020;12.066;2023-07-13T14:55:16;26.00;46.50
8965;DHT22;4517;49.020;12.066;2023-07-13T14:57:42;26.00;47.00
8965;DHT22;4517;49.020;12.066;2023-07-13T15:00:19;26.10;47.70
8965;DHT22;4517;49.020;12.066;2023-07-13T15:02:53;26.10;46.50
8965;DHT22;4517;49.020;12.066;2023-07-13T15:05:22;26.20;46.20
8965;DHT22;4517;49.020;12.066;2023-07-13T15:07:50;26.20;45.80
8965;DHT22;4517;49.020;12.066;2023-07-13T15:10:25;26.10;46.40
8965;DHT22;4517;49.020;12.066;2023-07-13T15:12:51;26.20;46.90
8965;DHT22;4517;49.020;12.066;2023-07-13T15:15:17;26.20;46.60
8965;DHT22;4517;49.020;12.066;2023-07-13T15:17:47;26.30;47.00
8965;DHT22;4517;49.020;12.066;2023-07-13T15:22:49;26.20;46.60
8965;DHT22;4517;49.020;12.066;2023-07-13T15:25:21;26.00;46.10
8965;DHT22;4517;49.020;12.066;2023-07-13T15:27:47;26.00;45.90
8965;DHT22;4517;49.020;12.066;2023-07-13T15:30:14;25.80;45.80
8965;DHT22;4517;49.020;12.066;2023-07-13T15:32:41;25.70;45.50
8965;DHT22;4517;49.020;12.066;2023-07-13T15:35:21;25.80;45.80
8965;DHT22;4517;49.020;12.066;2023-07-13T15:37:52;25.90;47.30
8965;DHT22;4517;49.020;12.066;2023-07-13T15:40:17;26.10;48.60
8965;DHT22;4517;49.020;12.066;2023-07-13T15:42:45;26.30;47.80
8965;DHT22;4517;49.020;12.066;2023-07-13T15:45:22;26.20;46.10
8965;DHT22;4517;49.020;12.066;2023-07-13T15:47:50;26.00;46.20
8965;DHT22;4517;49.020;12.066;2023-07-13T15:50:18;26.00;45.70
8965;DHT22;4517;49.020;12.066;2023-07-13T15:52:48;25.90;45.50
8965;DHT22;4517;49.020;12.066;2023-07-13T15:55:14;25.80;45.90
8965;DHT22;4517;49.020;12.066;2023-07-13T15:57:47;25.70;46.20
8965;DHT22;4517;49.020;12.066;2023-07-13T16:00:33;25.80;45.80
8965;DHT22;4517;49.020;12.066;2023-07-13T16:02:59;25.80;45.90
8965;DHT22;4517;49.020;12.066;2023-07-13T16:05:24;25.80;46.30
8965;DHT22;4517;49.020;12.066;2023-07-13T16:07:51;26.10;45.20
8965;DHT22;4517;49.020;12.066;2023-07-13T16:10:25;26.50;45.20
8965;DHT22;4517;49.020;12.066;2023-07-13T16:12:52;26.90;44.80
8965;DHT22;4517;49.020;12.066;2023-07-13T16:15:20;27.40;45.00
8965;DHT22;4517;49.020;12.066;2023-07-13T16:17:47;27.10;45.40
8965;DHT22;4517;49.020;12.066;2023-07-13T16:20:14;27.30;45.10
8965;DHT22;4517;49.020;12.066;2023-07-13T16:22:42;27.80;44.70
8965;DHT22;4517;49.020;12.066;2023-07-13T16:25:18;28.40;43.90